الصفحة الرئيسية
METAR-TAF:

METAR-TAF

مطار :

Resolute, نونافوت, كندا

دائرة عرض: 74-43N, خط طول: 094-59W, ارتفاع: 67 متر

مراقبة الطقس الحالي

تاريخ ووقت الإصدار 15 دقيقة قبل الساعة 05:00UTC
ريح 15 عقدة من الشمال الشرقي
درجة الحرارة -33°درجة مئوية
الرطوبة 60%
ضغط 1013 hPa
الرؤية: 24.1 كم
غيوم قليلة على ارتفاع 10000 قدم
بلورات ثلجية

METAR: CYRB 240500Z 04015KT 15SM IC FEW100 M33/M38 A2992 RMK AC1 SLP146

زمن: 23:15 (05:15 UTC)

توقعات

تاريخ ووقت الإصدار 5ساعات و 37 دقيقة قبل الساعة 23:38UTC
التوقعات صالحة من24 الساعة 00 UTC إلى 24 الساعة 24 UTC
ريح 10 عقدة من الشمال
الرؤية: 10 كم
غيوم متفرقة على ارتفاع 9000 قدم
بلورات ثلجية
أصبح
من 24 الساعة 13 UTC إلى 24 الساعة 15 UTC
ريح 5 عقدة من الشمال

TAF: CYRB 232338Z 2400/2424 36010KT P6SM IC SCT090 BECMG 2413/2415 36005KT RMK NXT FCST BY 240600Z

أرصاد الطقس والتوقعات من أكثر من 4000 مطار (تقارير الطقس للمطار METAR والتنبؤ بالطقس بالمطارTAF).

المحطات المتاحة هي النقط الصفراء والحمراء على الخريطة.

حرك المؤشر فوق النقطة لمعرفة اسم المحطة.

ثم انقر لمعرفة أرصاد وتوقعات الطقس.

لتغيير الخارطة: اضغط على الأزرار الخضراء مع رمز الصليب الأسود للتكبير. على الزر الأخضر مع شرطة للتصغير، أو على الأسهم الخضراء للخرائط المجاورة.


METAR-TAF: